createdAt,value
2023-02-23T00:00:33.347Z,24.4
2023-02-23T00:06:27.006Z,31.2
2023-02-23T00:12:20.003Z,33.4
2023-02-23T00:18:11.856Z,32.3
2023-02-23T00:23:49.122Z,30.7
2023-02-23T00:29:44.577Z,31.9
2023-02-23T00:35:40.043Z,33.8
2023-02-23T00:41:32.698Z,31.4
2023-02-23T00:47:27.003Z,27.9
2023-02-23T00:53:19.572Z,26.1
2023-02-23T00:59:12.573Z,24.9
2023-02-23T01:05:05.743Z,24.6
2023-02-23T01:10:58.317Z,31.5
2023-02-23T01:16:51.849Z,33.5
2023-02-23T01:22:45.447Z,31.9
2023-02-23T01:28:23.145Z,29.8
2023-02-23T01:34:18.284Z,26.3
2023-02-23T01:40:12.230Z,25.3
2023-02-23T01:46:03.816Z,24.6
2023-02-23T01:51:41.570Z,30.4
2023-02-23T01:57:35.629Z,32.9
2023-02-23T02:03:12.381Z,33
2023-02-23T02:09:05.487Z,31
2023-02-23T02:14:59.317Z,27.1
2023-02-23T02:20:36.169Z,25.9
2023-02-23T02:26:14.432Z,24.8
2023-02-23T02:32:08.960Z,26.9
2023-02-23T02:38:01.802Z,29.9
2023-02-23T02:43:54.772Z,23.8
2023-02-23T02:49:33.367Z,31.6
2023-02-23T02:55:10.747Z,33.7
2023-02-23T03:00:47.717Z,31.9
2023-02-23T03:06:25.825Z,30.6
2023-02-23T03:11:46.998Z,26.4
2023-02-23T03:17:24.765Z,25.6
2023-02-23T03:23:03.384Z,24.6
2023-02-23T03:28:40.066Z,29.6
2023-02-23T03:34:01.503Z,32.5
2023-02-23T03:39:08.370Z,33.8
2023-02-23T03:44:46.585Z,31.6
2023-02-23T03:50:24.307Z,28.8
2023-02-23T03:56:18.779Z,26.2
2023-02-23T04:01:56.217Z,25.1
2023-02-23T04:07:33.139Z,24.4
2023-02-23T04:12:56.711Z,30.6
2023-02-23T04:18:17.774Z,32.9
2023-02-23T04:23:54.660Z,33.2
2023-02-23T04:29:16.961Z,31.1
2023-02-23T04:35:10.816Z,30.8
2023-02-23T04:40:47.655Z,33.2
2023-02-23T04:46:25.922Z,32
2023-02-23T04:51:47.825Z,30.5
2023-02-23T04:57:43.886Z,26.6
2023-02-23T05:03:39.960Z,25.7
2023-02-23T05:09:31.672Z,24.6
2023-02-23T05:15:23.941Z,29
2023-02-23T05:21:18.706Z,30.4
2023-02-23T05:27:11.345Z,22.6
2023-02-23T05:33:05.031Z,31.3
2023-02-23T05:38:59.038Z,33.6
2023-02-23T05:44:50.909Z,31.9
2023-02-23T05:50:28.754Z,29.7
2023-02-23T05:56:07.369Z,26.4
2023-02-23T06:01:43.787Z,25.3
2023-02-23T06:07:36.723Z,24.6
2023-02-23T06:13:30.725Z,30.1
2023-02-23T06:19:22.567Z,32.9
2023-02-23T06:25:14.923Z,33.1
2023-02-23T06:31:10.140Z,31.1
2023-02-23T06:37:03.460Z,27.1
2023-02-23T06:42:55.200Z,25.9
2023-02-23T06:48:48.266Z,24.8
2023-02-23T06:54:25.438Z,27.6
2023-02-23T07:00:20.297Z,32.3
2023-02-23T07:06:14.522Z,33.6
2023-02-23T07:12:07.579Z,31.4
2023-02-23T07:18:04.109Z,30.7
2023-02-23T07:23:57.282Z,33.6
2023-02-23T07:29:49.653Z,31.8
2023-02-23T07:35:43.669Z,29.7
2023-02-23T07:41:38.261Z,26.3
2023-02-23T07:47:31.533Z,25.3
2023-02-23T07:53:24.309Z,24.7
2023-02-23T07:59:19.042Z,30.7
2023-02-23T08:05:12.378Z,33.7
2023-02-23T08:11:06.445Z,32.1
2023-02-23T08:16:59.827Z,30.6
2023-02-23T08:23:04.773Z,31.4
2023-02-23T08:28:56.671Z,34.1
2023-02-23T08:34:51.766Z,31.4
2023-02-23T08:40:44.460Z,30.3
2023-02-23T08:46:37.279Z,32.2
2023-02-23T08:52:30.551Z,33.6
2023-02-23T08:58:06.982Z,31.2
2023-02-23T09:03:58.912Z,30.1
2023-02-23T09:09:52.711Z,32.8
2023-02-23T09:15:45.145Z,33.2
2023-02-23T09:21:38.234Z,30.9
2023-02-23T09:27:18.640Z,29.1
2023-02-23T09:32:56.686Z,33.6
2023-02-23T09:38:34.098Z,32.4
2023-02-23T09:44:23.950Z,30.7
2023-02-23T09:50:16.609Z,28.7
2023-02-23T09:56:09.750Z,34.1
2023-02-23T10:02:03.622Z,32.1
2023-02-23T10:07:43.271Z,30.5
2023-02-23T10:13:38.580Z,29.9
2023-02-23T10:19:34.761Z,34.5
2023-02-23T10:25:27.369Z,31.5
2023-02-23T10:31:20.229Z,30.2
2023-02-23T10:37:04.517Z,30.8
2023-02-23T10:42:57.252Z,34
2023-02-23T10:48:41.375Z,31.3
2023-02-23T10:54:25.103Z,29.9
2023-02-23T11:00:18.167Z,30.4
2023-02-23T11:06:35.896Z,34.1
2023-02-23T11:12:46.268Z,31.2
2023-02-23T11:18:51.630Z,29.8
2023-02-23T11:24:53.826Z,28.9
2023-02-23T11:30:47.779Z,27.9
2023-02-23T11:36:41.264Z,27.1
2023-02-23T11:42:33.863Z,26.3
2023-02-23T11:48:32.214Z,25.4
2023-02-23T11:54:24.474Z,24.8
2023-02-23T12:00:03.169Z,24.3
2023-02-23T12:05:56.432Z,23.9
2023-02-23T12:11:34.392Z,23.6
2023-02-23T12:17:28.332Z,23.3
2023-02-23T12:23:20.970Z,23
2023-02-23T12:29:25.374Z,22.8
2023-02-23T12:35:18.586Z,22.6
2023-02-23T12:41:12.355Z,22.4
2023-02-23T12:47:04.576Z,22.3
2023-02-23T12:52:42.539Z,22.2
2023-02-23T12:58:35.205Z,22.1
2023-02-23T13:04:30.679Z,21.9
2023-02-23T13:10:30.759Z,21.8
2023-02-23T13:16:24.438Z,21.7
2023-02-23T13:22:02.137Z,21.6
2023-02-23T13:27:39.222Z,21.6
2023-02-23T13:33:22.106Z,21.5
2023-02-23T13:39:34.397Z,21.4
2023-02-23T13:45:26.353Z,21.3
2023-02-23T13:51:27.363Z,21.3
2023-02-23T13:57:29.403Z,21.2
2023-02-23T14:03:23.776Z,21.2
2023-02-23T14:08:47.500Z,21.1
2023-02-23T14:14:43.935Z,21.1
2023-02-23T14:20:46.316Z,21
2023-02-23T14:26:39.913Z,21
2023-02-23T14:32:51.183Z,20.9
2023-02-23T14:38:47.747Z,20.8
2023-02-23T14:44:53.075Z,20.8
2023-02-23T14:50:47.483Z,20.8
2023-02-23T14:56:43.855Z,20.8
2023-02-23T15:02:52.726Z,20.7
2023-02-23T15:08:46.703Z,20.7
2023-02-23T15:14:45.768Z,20.6
2023-02-23T15:20:50.431Z,20.6
2023-02-23T15:26:57.089Z,20.6
2023-02-23T15:32:51.524Z,20.6
2023-02-23T15:39:17.574Z,20.6
2023-02-23T15:45:17.385Z,20.6
2023-02-23T15:51:25.757Z,20.5
2023-02-23T15:57:03.760Z,20.4
2023-02-23T16:03:05.071Z,20.4
2023-02-23T16:09:06.812Z,20.4
2023-02-23T16:15:00.320Z,20.4
2023-02-23T16:21:03.171Z,20.4
2023-02-23T16:27:03.793Z,20.3
2023-02-23T16:32:26.442Z,20.3
2023-02-23T16:38:04.678Z,20.3
2023-02-23T16:43:57.290Z,20.3
2023-02-23T16:50:00.721Z,20.3
2023-02-23T16:55:56.938Z,20.2
2023-02-23T17:01:52.012Z,20
2023-02-23T17:07:40.776Z,20.1
2023-02-23T17:13:40.549Z,20
2023-02-23T17:19:33.537Z,19.9
2023-02-23T17:25:26.962Z,20
2023-02-23T17:31:22.336Z,19.9
2023-02-23T17:37:17.648Z,19.9
2023-02-23T17:43:11.007Z,19.9
2023-02-23T17:49:05.292Z,19.9
2023-02-23T17:54:59.449Z,19.9
2023-02-23T18:00:53.027Z,19.9
2023-02-23T18:06:47.589Z,19.9
2023-02-23T18:12:24.642Z,19.9
2023-02-23T18:18:18.337Z,19.9
2023-02-23T18:24:13.436Z,19.9
2023-02-23T18:29:49.817Z,19.8
2023-02-23T18:35:45.328Z,19.8
2023-02-23T18:41:39.194Z,19.8
2023-02-23T18:47:15.907Z,19.8
2023-02-23T18:52:53.525Z,19.8
2023-02-23T18:58:49.101Z,19.8
2023-02-23T19:04:43.021Z,19.7
2023-02-23T19:10:22.085Z,19.7
2023-02-23T19:16:28.952Z,19.7
2023-02-23T19:22:22.373Z,19.6
2023-02-23T19:27:59.728Z,19.6
2023-02-23T19:33:55.493Z,19.6
2023-02-23T19:39:47.663Z,19.6
2023-02-23T19:45:40.481Z,19.6
2023-02-23T19:51:33.825Z,19.6
2023-02-23T19:57:25.188Z,19.6
2023-02-23T20:03:18.559Z,19.6
2023-02-23T20:09:12.733Z,19.6
2023-02-23T20:15:05.068Z,19.6
2023-02-23T20:20:58.228Z,19.6
2023-02-23T20:26:51.028Z,19.6
2023-02-23T20:32:45.695Z,19.6
2023-02-23T20:38:38.801Z,19.6
2023-02-23T20:44:33.143Z,23.4
2023-02-23T20:50:24.942Z,30.5
2023-02-23T20:56:03.699Z,32.8
2023-02-23T21:01:42.905Z,33.8
2023-02-23T21:07:36.376Z,34.6
2023-02-23T21:13:29.495Z,32.3
2023-02-23T21:19:07.118Z,33.8
2023-02-23T21:25:02.305Z,33.6
2023-02-23T21:30:27.269Z,32.9
2023-02-23T21:36:21.970Z,33.8
2023-02-23T21:42:14.345Z,30.1
2023-02-23T21:48:08.163Z,33.4
2023-02-23T21:54:01.514Z,33.1
2023-02-23T22:00:01.064Z,29.6
2023-02-23T22:05:54.959Z,33.4
2023-02-23T22:11:31.562Z,32.8
2023-02-23T22:17:24.013Z,30.7
2023-02-23T22:23:17.909Z,32.3
2023-02-23T22:29:10.675Z,33.7
2023-02-23T22:35:04.512Z,31.3
2023-02-23T22:40:41.362Z,29.4
2023-02-23T22:46:35.105Z,33.4
2023-02-23T22:53:11.756Z,32.5
2023-02-23T22:58:48.772Z,30.4
2023-02-23T23:04:42.441Z,31.4
2023-02-23T23:10:36.142Z,34.3
2023-02-23T23:16:48.708Z,31.4
2023-02-23T23:22:42.161Z,29.9
2023-02-23T23:28:33.865Z,32.4
2023-02-23T23:34:29.097Z,33.5
2023-02-23T23:40:21.829Z,30.9
2023-02-23T23:46:14.185Z,29.8
2023-02-23T23:52:07.268Z,32.6
2023-02-23T23:58:01.229Z,33.2
